Time;durP1;ratioP1;P1;durP2;ratioP2;P2;SDS_P1;SDS_P2;PMS_P1;PMS_P2;Temp;Humidity;BMP_temperature;BMP_pressure;BME280_temperature;BME280_humidity;BME280_pressure;Samples;Min_cycle;Max_cycle;Signal;HPM_P1;HPM_P2
2021/11/29 00:01:43;;;;;;;27.38;20.58;;;3.20;99.90;;;3.22;77.13;99346.09;5004472;28;20190;-74
2021/11/29 00:04:13;;;;;;;34.03;23.02;;;3.20;99.90;;;3.15;77.07;99344.38;5002029;28;20229;-77
2021/11/29 00:06:44;;;;;;;37.50;22.15;;;3.20;99.90;;;3.21;77.08;99348.94;5006275;28;20178;-76
2021/11/29 00:09:13;;;;;;;30.80;21.50;;;3.20;99.90;;;3.17;76.75;99353.03;5007828;28;20253;-76
2021/11/29 00:11:43;;;;;;;29.90;22.17;;;3.20;99.90;;;3.13;77.20;99341.06;5003617;28;20211;-75
2021/11/29 00:14:12;;;;;;;32.90;22.85;;;3.10;99.90;;;3.22;77.01;99334.56;5003719;28;20233;-75
2021/11/29 00:16:41;;;;;;;35.50;22.20;;;3.20;99.90;;;3.31;76.74;99341.44;5000075;28;20261;-75
2021/11/29 00:19:10;;;;;;;38.08;23.65;;;3.30;99.90;;;3.20;76.92;99336.59;5005753;28;20205;-76
2021/11/29 00:21:39;;;;;;;45.33;23.70;;;3.30;99.90;;;3.27;76.81;99345.50;5007258;28;20262;-75
2021/11/29 00:24:10;;;;;;;40.95;24.73;;;3.30;99.90;;;3.16;77.69;99356.72;5005972;28;20218;-75
2021/11/29 00:26:39;;;;;;;34.03;23.23;;;3.20;99.90;;;3.29;76.93;99351.50;4997079;28;20183;-76
2021/11/29 00:29:08;;;;;;;33.63;23.20;;;3.30;99.90;;;3.22;77.22;99347.94;4996637;28;20615;-75
2021/11/29 00:31:36;;;;;;;33.67;22.75;;;3.20;99.90;;;3.08;77.42;99351.50;4995455;28;20211;-76
2021/11/29 00:34:05;;;;;;;42.20;25.50;;;3.20;99.90;;;3.14;77.46;99353.41;4995982;28;20206;-76
2021/11/29 00:36:34;;;;;;;37.53;22.23;;;3.20;99.90;;;3.03;77.62;99358.25;5012248;28;20191;-75
2021/11/29 00:39:04;;;;;;;39.03;23.35;;;3.10;99.90;;;3.13;77.52;99351.75;4997345;28;20210;-76
2021/11/29 00:41:35;;;;;;;39.55;25.02;;;3.20;99.90;;;3.13;77.98;99339.22;4997377;28;20171;-76
2021/11/29 00:44:04;;;;;;;40.13;28.35;;;3.20;99.90;;;3.16;78.08;99352.19;4996957;28;20242;-75
2021/11/29 00:46:33;;;;;;;37.20;25.23;;;3.20;99.90;;;3.11;77.96;99351.13;4996917;28;20198;-75
2021/11/29 00:49:02;;;;;;;36.10;24.38;;;3.20;99.90;;;2.86;78.54;99346.16;4996786;28;20202;-74
2021/11/29 00:51:31;;;;;;;39.72;24.63;;;3.00;99.90;;;2.79;78.69;99353.28;4997434;28;20253;-74
2021/11/29 00:54:00;;;;;;;48.38;26.25;;;2.90;99.90;;;2.74;78.80;99354.88;4997693;28;20266;-75
2021/11/29 00:56:29;;;;;;;43.60;27.48;;;2.90;99.90;;;2.94;78.70;99364.75;4996202;28;20305;-76
2021/11/29 00:58:59;;;;;;;39.85;25.33;;;2.90;99.90;;;2.92;78.63;99366.78;5003695;28;20274;-76
2021/11/29 01:01:28;;;;;;;40.70;26.85;;;3.00;99.90;;;3.06;78.27;99375.75;5005945;28;20206;-75
2021/11/29 01:03:58;;;;;;;51.13;26.50;;;3.00;99.90;;;3.17;78.15;99374.41;5006462;28;20219;-75
2021/11/29 01:06:27;;;;;;;45.63;27.85;;;3.10;99.90;;;3.39;77.37;99373.34;4998185;28;20182;-76
2021/11/29 01:08:55;;;;;;;38.03;25.60;;;3.30;99.90;;;3.28;77.62;99371.22;4997420;28;20219;-75
2021/11/29 01:11:24;;;;;;;40.03;28.08;;;3.30;99.90;;;3.15;78.14;99379.13;4997184;28;20298;-75
2021/11/29 01:13:53;;;;;;;43.78;27.33;;;3.10;99.90;;;3.18;78.06;99379.56;4998042;28;20286;-76
2021/11/29 01:16:24;;;;;;;41.60;26.10;;;3.20;99.90;;;3.26;77.99;99386.63;4997552;28;20195;-75
2021/11/29 01:18:53;;;;;;;42.17;25.45;;;3.20;99.90;;;3.32;77.82;99380.50;5005571;28;20197;-77
2021/11/29 01:21:22;;;;;;;43.50;27.30;;;3.20;99.90;;;3.40;77.57;99381.19;5006183;28;20233;-74
2021/11/29 01:23:52;;;;;;;42.38;25.42;;;3.30;99.90;;;3.27;77.44;99385.59;5003950;28;20226;-75
2021/11/29 01:26:21;;;;;;;40.30;24.83;;;3.30;99.90;;;3.30;77.92;99388.72;5007237;28;20209;-75
2021/11/29 01:28:49;;;;;;;38.90;24.05;;;3.30;99.90;;;3.31;77.80;99386.88;4997097;28;20194;-75
2021/11/29 01:31:18;;;;;;;39.55;24.48;;;3.30;99.90;;;3.32;77.47;99391.22;4996386;28;20647;-74
2021/11/29 01:33:49;;;;;;;38.95;25.05;;;3.30;99.90;;;3.30;78.16;99390.56;4994391;28;20231;-76
2021/11/29 01:36:18;;;;;;;39.65;24.55;;;3.30;99.90;;;3.25;78.24;99388.47;4996525;28;20371;-75
2021/11/29 01:38:46;;;;;;;38.70;24.77;;;3.30;99.90;;;3.23;78.40;99392.38;4996896;28;20206;-75
2021/11/29 01:41:16;;;;;;;44.08;25.80;;;3.20;99.90;;;3.21;78.00;99389.03;4998473;28;20274;-75
2021/11/29 01:43:46;;;;;;;38.50;23.42;;;3.20;99.90;;;3.21;78.62;99391.72;4999078;28;20285;-75
2021/11/29 01:46:16;;;;;;;44.28;27.10;;;3.20;99.90;;;3.32;78.26;99393.88;4999779;28;20235;-75
2021/11/29 01:48:45;;;;;;;47.85;27.38;;;3.30;99.90;;;3.42;78.12;99399.72;5000121;28;20179;-76
2021/11/29 01:51:16;;;;;;;42.45;25.67;;;3.30;99.90;;;3.35;77.76;99399.66;4998625;28;20171;-75
2021/11/29 01:53:45;;;;;;;37.72;27.10;;;3.30;99.90;;;3.44;77.76;99397.69;5010321;28;20226;-74
2021/11/29 01:56:14;;;;;;;36.95;23.33;;;3.40;99.90;;;3.26;78.06;99400.00;4995101;28;20274;-74
2021/11/29 01:58:43;;;;;;;43.45;26.77;;;3.30;99.90;;;3.18;78.48;99386.75;4995235;28;20667;-75
2021/11/29 02:01:17;;;;;;;39.83;25.42;;;3.30;99.90;;;3.12;78.59;99406.22;4995626;28;20210;-76
2021/11/29 02:03:53;;;;;;;40.92;27.00;;;3.20;99.90;;;3.03;78.94;99400.19;4995465;28;20245;-74
2021/11/29 02:06:24;;;;;;;44.42;26.05;;;3.10;99.90;;;2.99;79.25;99398.91;4995365;28;20594;-74
2021/11/29 02:08:54;;;;;;;48.47;28.98;;;3.00;99.90;;;3.00;79.26;99395.22;5010318;28;20190;-76
2021/11/29 02:11:25;;;;;;;43.03;25.17;;;3.00;99.90;;;2.86;79.37;99398.75;4995485;28;20246;-75
2021/11/29 02:13:56;;;;;;;48.35;24.63;;;3.00;99.90;;;2.88;79.33;99394.88;4994368;28;20227;-75
2021/11/29 02:16:26;;;;;;;44.92;28.08;;;2.90;99.90;;;2.86;79.43;99404.09;4996095;28;20541;-76
2021/11/29 02:18:56;;;;;;;43.10;27.50;;;2.90;99.90;;;2.77;79.85;99402.56;4996058;28;20251;-75
2021/11/29 02:21:29;;;;;;;37.38;25.00;;;2.90;99.90;;;2.71;79.77;99398.00;4995327;28;20179;-75
2021/11/29 02:24:03;;;;;;;40.63;24.42;;;2.80;99.90;;;2.71;79.57;99406.81;4992814;28;20330;-74
2021/11/29 02:26:36;;;;;;;43.20;25.35;;;2.70;99.90;;;2.62;80.03;99406.09;4992908;28;20194;-75
2021/11/29 02:29:12;;;;;;;38.17;24.05;;;2.70;99.90;;;2.62;79.98;99405.25;4994488;28;20229;-75
2021/11/29 02:31:48;;;;;;;50.42;26.17;;;2.70;99.90;;;2.58;79.66;99403.97;4994278;28;20206;-75
2021/11/29 02:34:21;;;;;;;46.25;25.98;;;2.60;99.90;;;2.46;79.98;99398.31;4994234;28;20209;-75
2021/11/29 02:36:53;;;;;;;39.17;23.95;;;2.50;99.90;;;2.50;80.17;99410.25;4994033;28;20206;-74
2021/11/29 02:39:23;;;;;;;46.70;26.20;;;2.50;99.90;;;2.57;79.94;99407.66;4994234;28;20538;-74
2021/11/29 02:41:55;;;;;;;56.40;29.20;;;2.60;99.90;;;2.45;80.64;99412.66;4993807;28;20203;-74
2021/11/29 02:44:24;;;;;;;46.58;27.77;;;2.50;99.90;;;2.65;80.50;99409.41;4993168;28;20241;-75
2021/11/29 02:46:53;;;;;;;41.83;24.80;;;2.60;99.90;;;2.64;79.72;99413.91;4993172;28;20194;-74
2021/11/29 02:49:22;;;;;;;36.47;22.10;;;2.60;99.90;;;2.57;80.00;99415.66;4993412;28;20186;-74
2021/11/29 02:51:55;;;;;;;41.30;25.02;;;2.60;99.90;;;2.54;79.99;99419.56;4993903;28;20178;-75
2021/11/29 02:54:28;;;;;;;30.48;20.17;;;2.60;99.90;;;2.60;79.99;99415.31;4993812;28;20218;-75
2021/11/29 02:57:03;;;;;;;37.22;22.85;;;2.60;99.90;;;2.52;80.21;99418.06;4993964;28;20229;-74
2021/11/29 02:59:35;;;;;;;36.58;21.95;;;2.60;99.90;;;2.65;79.97;99422.75;4993778;28;20580;-74
2021/11/29 03:02:07;;;;;;;41.97;24.13;;;2.60;99.90;;;2.66;79.88;99413.75;4993796;28;20607;-74
2021/11/29 03:04:38;;;;;;;34.72;22.40;;;2.60;99.90;;;2.65;79.92;99418.25;4993607;28;20659;-74
2021/11/29 03:07:10;;;;;;;38.00;23.92;;;2.70;99.90;;;2.49;79.72;99421.94;4993389;28;20182;-74
2021/11/29 03:09:39;;;;;;;37.90;22.45;;;2.60;99.90;;;2.55;79.98;99415.03;4993509;28;20644;-73
2021/11/29 03:12:09;;;;;;;38.70;23.52;;;2.60;99.90;;;2.57;80.01;99413.00;4992222;28;20194;-74
2021/11/29 03:14:38;;;;;;;38.83;21.60;;;2.60;99.90;;;2.56;80.61;99414.88;4993372;28;20577;-75
2021/11/29 03:17:07;;;;;;;41.92;27.23;;;2.60;99.90;;;2.62;80.47;99418.59;4993198;28;20620;-74
2021/11/29 03:19:40;;;;;;;38.80;25.48;;;2.60;99.90;;;2.63;80.70;99420.28;4993101;28;20170;-73
2021/11/29 03:22:13;;;;;;;46.08;27.10;;;2.60;99.90;;;2.79;80.40;99419.22;4993145;28;20182;-73
2021/11/29 03:24:45;;;;;;;39.72;23.73;;;2.70;99.90;;;2.74;80.01;99417.13;4993565;28;20241;-74
2021/11/29 03:27:15;;;;;;;44.05;23.95;;;2.70;99.90;;;2.67;80.05;99421.53;4993464;28;20167;-75
2021/11/29 03:29:48;;;;;;;45.05;25.52;;;2.70;99.90;;;2.65;80.40;99415.59;4993903;28;20261;-73
2021/11/29 03:32:20;;;;;;;56.70;27.75;;;2.60;99.90;;;2.68;79.94;99423.22;4993125;28;20651;-74
2021/11/29 03:34:50;;;;;;;39.55;23.35;;;2.70;99.90;;;2.80;80.19;99427.06;4996704;28;20218;-73
2021/11/29 03:37:22;;;;;;;44.70;27.35;;;2.70;99.90;;;2.74;80.03;99424.31;4997092;28;20187;-75
2021/11/29 03:39:51;;;;;;;47.60;26.88;;;2.70;99.90;;;2.70;80.37;99418.53;4996886;28;20229;-74
2021/11/29 03:42:20;;;;;;;49.63;27.50;;;2.70;99.90;;;2.69;80.46;99424.03;4995417;28;20179;-73
2021/11/29 03:44:49;;;;;;;50.55;28.88;;;2.70;99.90;;;2.49;80.68;99421.94;4996609;28;20213;-75
2021/11/29 03:47:17;;;;;;;54.20;28.10;;;2.60;99.90;;;2.64;80.52;99421.94;4995562;28;20198;-75
2021/11/29 03:49:46;;;;;;;49.00;28.45;;;2.60;99.90;;;2.66;80.59;99419.91;5011881;28;20183;-74
2021/11/29 03:52:15;;;;;;;59.95;25.92;;;2.70;99.90;;;2.57;80.50;99419.16;4995407;28;20191;-74
2021/11/29 03:54:46;;;;;;;53.17;31.67;;;2.60;99.90;;;2.71;80.55;99422.81;4995231;28;20886;-74
2021/11/29 03:57:14;;;;;;;54.38;28.63;;;2.70;99.90;;;2.66;80.61;99419.91;4997073;28;20183;-74
2021/11/29 03:59:43;;;;;;;56.38;30.60;;;2.70;99.90;;;2.71;80.36;99422.03;4996508;28;20310;-75
2021/11/29 04:02:12;;;;;;;54.83;31.70;;;2.70;99.90;;;2.71;80.50;99428.16;4995255;28;20214;-76
2021/11/29 04:04:41;;;;;;;51.28;30.65;;;2.70;99.90;;;2.67;80.57;99431.41;4994975;28;20223;-74
2021/11/29 04:07:10;;;;;;;55.65;27.92;;;2.70;99.90;;;2.69;80.84;99424.88;4994935;28;20194;-74
2021/11/29 04:09:39;;;;;;;63.55;32.03;;;2.70;99.90;;;2.65;80.59;99420.94;4996902;28;20699;-73
2021/11/29 04:12:10;;;;;;;57.20;29.55;;;2.70;99.90;;;2.62;80.61;99423.94;5014285;28;20382;-74
2021/11/29 04:14:39;;;;;;;52.30;28.27;;;2.70;99.90;;;2.66;80.51;99422.59;5003197;28;20218;-73
2021/11/29 04:17:08;;;;;;;51.13;27.98;;;2.70;99.90;;;2.77;80.31;99416.75;5003474;28;20247;-73
2021/11/29 04:19:41;;;;;;;60.78;33.55;;;2.70;99.90;;;2.61;80.34;99419.66;5007078;28;20182;-76
2021/11/29 04:22:10;;;;;;;53.53;29.65;;;2.70;99.90;;;2.67;80.78;99418.88;5006675;28;20195;-74
2021/11/29 04:24:40;;;;;;;60.97;32.30;;;2.70;99.90;;;2.62;81.23;99418.59;4996766;28;20209;-76
2021/11/29 04:27:10;;;;;;;55.53;30.90;;;2.60;99.90;;;2.78;80.51;99417.56;4997685;28;20632;-74
2021/11/29 04:29:41;;;;;;;58.00;30.50;;;2.70;99.90;;;2.77;80.49;99415.91;4998607;28;20179;-74
2021/11/29 04:32:11;;;;;;;55.58;29.45;;;2.80;99.90;;;2.67;80.77;99418.88;4999047;28;20246;-74
2021/11/29 04:34:40;;;;;;;53.95;29.13;;;2.70;99.90;;;2.74;81.08;99425.16;4999008;28;20286;-75
2021/11/29 04:37:09;;;;;;;64.40;32.45;;;2.70;99.90;;;2.84;80.55;99423.00;4997149;28;20222;-76
2021/11/29 04:39:38;;;;;;;56.40;31.10;;;2.80;99.90;;;2.85;80.28;99419.31;4995636;28;20283;-74
2021/11/29 04:42:15;;;;;;;56.55;32.03;;;2.80;99.90;;;2.83;80.57;99417.84;4996867;28;20207;-73
2021/11/29 04:44:44;;;;;;;61.95;33.67;;;2.90;99.90;;;2.75;80.57;99418.78;4994752;28;20640;-73
2021/11/29 04:47:12;;;;;;;58.97;31.08;;;2.80;99.90;;;2.62;80.61;99423.94;4996080;28;20175;-74
2021/11/29 04:49:41;;;;;;;59.28;32.75;;;2.70;99.90;;;2.73;80.90;99420.81;4995916;28;20175;-75
2021/11/29 04:52:11;;;;;;;60.83;31.90;;;2.70;99.90;;;2.76;80.78;99422.28;4996292;28;20229;-74
2021/11/29 04:54:40;;;;;;;68.03;32.33;;;2.80;99.90;;;2.72;80.49;99429.81;4996067;28;20226;-74
2021/11/29 04:57:10;;;;;;;56.80;29.75;;;2.70;99.90;;;2.70;80.65;99431.88;5001385;28;20218;-73
2021/11/29 04:59:40;;;;;;;61.28;34.92;;;2.70;99.90;;;2.65;80.54;99430.78;5002873;28;20193;-74
2021/11/29 05:02:09;;;;;;;56.13;31.50;;;2.70;99.90;;;2.76;80.57;99439.13;5003796;28;20203;-74
2021/11/29 05:04:38;;;;;;;59.08;31.60;;;2.70;99.90;;;2.74;80.95;99433.16;5001752;28;20395;-73
2021/11/29 05:07:07;;;;;;;54.78;29.02;;;2.70;99.90;;;2.73;80.75;99436.84;5003710;28;20198;-73
2021/11/29 05:09:37;;;;;;;52.95;31.30;;;2.70;99.90;;;2.86;80.63;99438.81;5007551;28;20309;-75
2021/11/29 05:12:07;;;;;;;63.63;29.55;;;2.80;99.90;;;2.84;80.50;99440.88;5065777;23;20255;-74
2021/11/29 05:14:36;;;;;;;66.40;34.53;;;2.80;99.90;;;2.83;80.50;99441.88;5057485;28;20205;-74
2021/11/29 05:17:06;;;;;;;58.70;32.85;;;2.80;99.90;;;2.78;80.82;99447.78;5052692;28;20197;-75
2021/11/29 05:19:35;;;;;;;65.63;31.77;;;2.80;99.90;;;2.93;81.06;99455.78;5053746;28;20227;-73
2021/11/29 05:22:05;;;;;;;71.85;33.15;;;2.90;99.90;;;2.73;80.53;99455.53;5052387;28;20272;-73
2021/11/29 05:24:35;;;;;;;56.83;34.17;;;2.80;99.90;;;2.91;80.19;99461.28;5054091;28;20205;-73
2021/11/29 05:27:04;;;;;;;60.63;31.02;;;2.90;99.90;;;2.89;80.10;99471.34;5054314;28;20169;-74
2021/11/29 05:29:34;;;;;;;56.72;33.60;;;2.90;99.90;;;2.84;80.09;99472.94;5053952;28;20201;-73
2021/11/29 05:32:03;;;;;;;48.65;30.58;;;2.90;99.90;;;2.89;79.87;99473.19;5054078;28;20177;-74
2021/11/29 05:34:33;;;;;;;56.22;28.73;;;2.90;99.90;;;2.94;80.02;99476.97;5053864;28;20243;-74
2021/11/29 05:37:22;;;;;;;57.88;31.98;;;2.90;99.90;;;3.05;79.49;99479.13;5053871;28;20251;-73
2021/11/29 05:39:51;;;;;;;55.20;30.52;;;3.00;99.90;;;2.99;79.42;99474.56;5054451;28;20184;-74
2021/11/29 05:42:41;;;;;;;54.50;31.20;;;3.00;99.90;;;2.87;79.49;99485.91;5055825;28;20181;-74
2021/11/29 05:45:12;;;;;;;58.40;30.38;;;3.00;99.90;;;2.85;80.37;99488.78;5054235;28;20201;-74
2021/11/29 05:47:42;;;;;;;50.30;29.73;;;2.90;99.90;;;2.96;80.13;99498.97;5054135;28;20173;-74
2021/11/29 05:50:16;;;;;;;50.75;29.73;;;2.90;99.90;;;2.93;80.25;99502.03;5054533;28;20173;-72
2021/11/29 05:52:46;;;;;;;60.30;30.75;;;2.90;99.90;;;3.05;80.21;99495.16;5054594;28;20246;-74
2021/11/29 05:55:16;;;;;;;59.55;32.35;;;3.00;99.90;;;3.04;79.87;99508.75;5054846;28;20201;-72
2021/11/29 05:57:45;;;;;;;54.58;31.13;;;3.00;99.90;;;2.86;80.17;99503.78;5056203;28;20177;-76
2021/11/29 06:00:17;;;;;;;58.25;30.67;;;2.90;99.90;;;2.90;80.37;99505.09;5062259;28;20174;-73
2021/11/29 06:02:46;;;;;;;58.63;34.20;;;2.90;99.90;;;3.00;80.08;99500.25;5062917;28;20189;-73
2021/11/29 06:05:18;;;;;;;56.50;32.10;;;3.00;99.90;;;2.99;79.89;99506.63;5062134;28;20170;-74
2021/11/29 06:07:47;;;;;;;56.40;31.73;;;3.00;99.90;;;2.94;80.24;99503.69;5066272;28;20169;-72
2021/11/29 06:10:16;;;;;;;58.25;30.42;;;3.00;99.90;;;2.89;80.27;99511.44;5071501;28;20220;-73
2021/11/29 06:12:45;;;;;;;40.75;25.92;;;2.90;99.90;;;2.85;79.75;99509.31;5070987;28;20203;-75
2021/11/29 06:15:17;;;;;;;53.63;27.85;;;2.90;99.90;;;2.89;79.93;99516.78;5068560;28;20205;-73
2021/11/29 06:17:46;;;;;;;53.42;30.02;;;2.90;99.90;;;3.04;79.40;99524.78;5068343;28;20178;-73
2021/11/29 06:20:21;;;;;;;51.17;28.95;;;3.00;99.90;;;2.87;79.72;99526.81;5068847;28;20543;-73
2021/11/29 06:22:53;;;;;;;46.05;26.65;;;2.90;99.90;;;2.75;78.89;99520.28;5062329;28;20194;-73
2021/11/29 06:25:24;;;;;;;46.22;27.40;;;2.90;99.90;;;2.88;79.14;99524.97;5055078;28;20177;-73
2021/11/29 06:27:54;;;;;;;51.03;30.00;;;2.90;99.90;;;3.01;79.33;99533.97;5054339;28;20660;-74
2021/11/29 06:30:25;;;;;;;52.10;32.83;;;3.00;99.90;;;3.04;79.61;99530.94;5053849;28;20445;-73
2021/11/29 06:32:54;;;;;;;51.97;29.02;;;3.00;99.90;;;3.12;79.30;99531.84;5053387;28;20288;-74
2021/11/29 06:35:24;;;;;;;53.20;30.98;;;3.00;99.90;;;3.17;79.09;99524.09;5052627;28;20201;-73
2021/11/29 06:38:00;;;;;;;47.92;26.40;;;3.10;99.90;;;3.17;78.96;99530.28;5052612;28;20404;-74
2021/11/29 06:40:30;;;;;;;45.13;27.88;;;3.20;99.90;;;3.02;78.33;99538.31;5052239;28;20230;-73
2021/11/29 06:43:00;;;;;;;44.85;25.67;;;3.10;99.90;;;3.02;78.19;99542.81;5052601;28;20255;-73
2021/11/29 06:45:29;;;;;;;49.83;28.77;;;3.10;99.90;;;2.92;78.73;99548.47;5052769;28;20248;-72
2021/11/29 06:47:58;;;;;;;41.58;27.67;;;2.90;99.90;;;2.92;78.80;99547.63;5052049;28;20181;-72
2021/11/29 06:50:29;;;;;;;41.92;26.02;;;3.00;99.90;;;2.86;78.12;99543.00;5052358;28;20215;-74
2021/11/29 06:52:58;;;;;;;46.88;26.88;;;2.90;99.90;;;2.79;78.57;99556.31;5052413;28;20205;-73
2021/11/29 06:55:27;;;;;;;48.25;26.67;;;2.80;99.90;;;2.60;78.79;99559.53;5052219;28;20558;-73
2021/11/29 06:57:56;;;;;;;46.72;29.13;;;2.70;99.90;;;2.61;79.09;99556.66;5052456;28;20272;-73
2021/11/29 07:00:25;;;;;;;45.15;28.15;;;2.70;99.90;;;2.71;79.12;99561.72;5052424;28;20237;-73
2021/11/29 07:02:56;;;;;;;41.83;26.30;;;2.70;99.90;;;2.57;79.16;99565.22;5071901;28;20188;-72
2021/11/29 07:05:28;;;;;;;45.10;28.08;;;2.60;99.90;;;2.75;78.97;99559.53;5072102;28;20210;-73
2021/11/29 07:07:58;;;;;;;48.35;29.52;;;2.70;99.90;;;2.74;78.98;99561.38;5071548;28;20583;-72
2021/11/29 07:10:28;;;;;;;46.95;26.38;;;2.80;99.90;;;2.63;79.02;99572.50;5071795;28;20187;-73
2021/11/29 07:12:58;;;;;;;41.13;23.88;;;2.80;99.90;;;2.60;79.11;99570.22;5072257;28;20656;-74
2021/11/29 07:15:30;;;;;;;41.67;26.52;;;2.70;99.90;;;2.66;79.33;99574.81;5072007;28;20228;-73
2021/11/29 07:17:59;;;;;;;46.47;27.67;;;2.70;99.90;;;2.66;79.20;99577.50;5072473;28;20168;-72
2021/11/29 07:20:29;;;;;;;44.08;27.10;;;2.70;99.90;;;2.62;79.10;99579.69;5073192;28;20183;-73
2021/11/29 07:22:59;;;;;;;44.35;23.33;;;2.70;99.90;;;2.52;79.55;99579.13;5072580;28;20214;-73
2021/11/29 07:25:28;;;;;;;45.67;26.48;;;2.60;99.90;;;2.71;79.31;99582.28;5072228;28;20180;-73
2021/11/29 07:27:57;;;;;;;57.58;36.92;;;2.70;99.90;;;2.77;79.39;99587.69;5072073;28;20270;-73
2021/11/29 07:30:28;;;;;;;50.17;31.45;;;2.70;99.90;;;2.77;78.45;99587.69;5072741;28;20257;-73
2021/11/29 07:32:58;;;;;;;44.33;28.17;;;2.80;99.90;;;2.89;78.39;99596.94;5072392;28;20277;-74
2021/11/29 07:35:31;;;;;;;42.63;25.60;;;2.80;99.90;;;2.71;78.22;99604.44;5072453;28;20269;-74
2021/11/29 07:38:00;;;;;;;76.75;50.63;;;2.80;99.90;;;2.71;78.55;99593.78;5072307;28;20197;-74
2021/11/29 07:40:31;;;;;;;46.20;24.58;;;2.80;99.90;;;2.76;78.53;99602.06;5071947;28;20180;-73
2021/11/29 07:43:05;;;;;;;44.47;25.52;;;2.80;99.90;;;2.73;78.68;99602.44;5072575;28;20211;-73
2021/11/29 07:45:36;;;;;;;40.90;25.67;;;2.80;99.90;;;2.79;78.92;99609.72;5071797;28;20191;-75
2021/11/29 07:48:06;;;;;;;46.58;26.65;;;2.80;99.90;;;2.83;78.30;99608.34;5071914;28;20179;-72
2021/11/29 07:50:38;;;;;;;42.08;26.38;;;2.80;99.90;;;2.93;78.67;99611.56;5072030;28;20199;-73
2021/11/29 07:53:07;;;;;;;41.53;27.67;;;2.90;99.90;;;2.99;78.03;99610.84;5071556;28;20696;-74
2021/11/29 07:55:36;;;;;;;41.45;26.17;;;3.00;99.90;;;2.71;78.52;99620.47;5073995;28;20196;-73
2021/11/29 07:58:06;;;;;;;46.40;28.30;;;2.90;99.90;;;2.86;78.67;99618.66;5075680;28;20176;-74
2021/11/29 08:00:38;;;;;;;40.08;30.42;;;2.90;99.90;;;2.80;78.75;99627.44;5075535;28;20530;-74
2021/11/29 08:03:08;;;;;;;43.90;28.35;;;2.80;99.90;;;2.82;78.58;99625.38;5077275;28;20207;-74
2021/11/29 08:05:40;;;;;;;38.25;25.90;;;2.80;99.90;;;3.01;78.42;99626.69;5077091;28;20177;-73
2021/11/29 08:08:10;;;;;;;37.40;23.85;;;3.00;99.90;;;2.74;78.60;99630.81;5077444;28;20543;-73
2021/11/29 08:10:41;;;;;;;57.88;40.53;;;2.90;99.90;;;2.77;78.44;99630.44;5076614;28;20183;-74
2021/11/29 08:13:13;;;;;;;39.85;25.05;;;2.80;99.90;;;3.02;78.32;99629.19;5074819;28;20204;-74
2021/11/29 08:15:42;;;;;;;43.67;27.00;;;3.00;99.90;;;2.87;78.34;99631.00;5074929;28;20240;-74
2021/11/29 08:18:16;;;;;;;41.72;26.83;;;2.90;99.90;;;2.69;78.95;99633.22;5074327;28;20595;-74
2021/11/29 08:20:47;;;;;;;38.45;23.50;;;2.80;99.90;;;2.88;78.95;99639.84;5076451;28;20179;-74
2021/11/29 08:23:17;;;;;;;42.15;26.88;;;2.80;99.90;;;2.86;78.86;99629.34;5079191;28;20204;-73
2021/11/29 08:25:46;;;;;;;41.03;24.75;;;2.90;99.90;;;2.86;78.85;99640.03;5077404;28;20236;-76
2021/11/29 08:28:15;;;;;;;42.40;25.40;;;2.90;99.90;;;2.86;78.93;99644.53;5076936;28;20223;-74
2021/11/29 08:30:45;;;;;;;51.70;27.80;;;2.90;99.90;;;2.87;78.94;99647.03;5076913;28;20196;-74
2021/11/29 08:33:13;;;;;;;40.10;23.95;;;2.90;99.90;;;2.87;78.56;99651.56;5077348;28;20204;-73
2021/11/29 08:35:46;;;;;;;47.75;29.33;;;2.90;99.90;;;2.99;79.14;99658.94;5060011;28;20345;-73
2021/11/29 08:38:18;;;;;;;42.08;26.02;;;2.90;99.90;;;3.08;78.28;99653.50;5078132;28;20177;-74
2021/11/29 08:40:49;;;;;;;46.78;29.33;;;3.10;99.90;;;3.01;78.13;99653.41;5076684;28;20204;-74
2021/11/29 08:43:20;;;;;;;47.83;27.15;;;3.00;99.90;;;2.87;78.96;99648.88;5057299;28;20323;-74
2021/11/29 08:45:51;;;;;;;44.88;27.02;;;2.90;99.90;;;3.02;78.49;99647.06;5074958;28;20196;-73
2021/11/29 08:48:22;;;;;;;43.33;27.00;;;3.00;99.90;;;2.95;78.42;99644.28;5075136;28;20183;-75
2021/11/29 08:50:55;;;;;;;45.15;28.63;;;3.00;99.90;;;2.88;78.66;99653.22;5075019;28;20177;-74
2021/11/29 08:53:27;;;;;;;45.65;26.17;;;2.90;99.90;;;2.92;78.63;99654.50;5074878;28;20204;-74
2021/11/29 08:55:57;;;;;;;41.42;25.85;;;2.90;99.90;;;3.06;78.35;99653.69;5075145;28;20599;-74
2021/11/29 08:58:27;;;;;;;47.95;26.15;;;3.00;99.90;;;3.03;78.53;99657.56;5057049;28;20276;-74
2021/11/29 09:00:57;;;;;;;39.83;25.20;;;3.10;99.90;;;3.01;78.71;99669.44;5075383;28;20651;-76
2021/11/29 09:03:27;;;;;;;47.40;27.98;;;3.00;99.90;;;3.04;78.29;99659.22;5074690;28;20208;-74
2021/11/29 09:05:58;;;;;;;47.97;25.77;;;3.10;99.90;;;2.91;78.91;99668.88;5074606;28;20247;-74
2021/11/29 09:08:31;;;;;;;43.38;26.83;;;3.00;99.90;;;2.89;79.11;99682.44;5075108;28;20187;-74
2021/11/29 09:11:01;;;;;;;54.83;30.73;;;2.90;99.90;;;3.13;78.86;99676.00;5075687;28;20191;-74
2021/11/29 09:13:46;;;;;;;44.03;26.60;;;3.00;99.90;;;3.27;78.29;99685.03;5075714;28;20353;-73
2021/11/29 09:16:18;;;;;;;43.63;27.15;;;3.20;99.90;;;3.12;78.35;99689.53;5062795;28;20212;-73
2021/11/29 09:18:48;;;;;;;43.55;26.90;;;3.20;99.90;;;3.09;78.47;99684.56;5077991;28;20251;-74
2021/11/29 09:21:21;;;;;;;42.78;23.95;;;3.20;99.90;;;3.01;78.39;99686.31;5050975;28;20254;-73
2021/11/29 09:23:52;;;;;;;46.58;28.23;;;3.10;99.90;;;3.04;78.46;99683.28;5058210;28;20272;-74
2021/11/29 09:26:21;;;;;;;44.40;27.52;;;3.10;99.90;;;3.09;78.84;99680.06;5074609;28;20584;-73
2021/11/29 09:28:50;;;;;;;42.03;26.13;;;3.10;99.90;;;3.08;78.64;99686.41;5058538;28;20237;-74
2021/11/29 09:31:20;;;;;;;49.20;29.55;;;3.10;99.90;;;3.31;78.24;99689.00;5055198;28;20177;-75
2021/11/29 09:33:49;;;;;;;39.67;22.95;;;3.20;99.90;;;3.37;77.54;99681.06;5053838;28;20216;-73
2021/11/29 09:36:18;;;;;;;43.75;25.35;;;3.30;99.90;;;3.41;77.87;99684.19;5057681;28;20681;-73
2021/11/29 09:38:48;;;;;;;42.80;26.83;;;3.30;99.90;;;3.26;77.63;99678.03;5056113;28;20246;-75
2021/11/29 09:41:21;;;;;;;42.28;26.58;;;3.40;99.90;;;3.27;78.09;99679.69;5056410;28;20208;-75
2021/11/29 09:43:50;;;;;;;43.38;25.83;;;3.30;99.90;;;3.49;77.90;99678.75;5055102;28;20319;-75
2021/11/29 09:46:19;;;;;;;39.10;22.30;;;3.40;99.90;;;3.40;77.48;99674.50;5053846;28;20188;-73
2021/11/29 09:48:48;;;;;;;51.78;27.63;;;3.40;99.90;;;3.08;78.41;99681.06;5053568;28;20216;-74
2021/11/29 09:51:32;;;;;;;41.17;25.88;;;3.30;99.90;;;3.10;78.44;99675.56;5053655;28;20181;-74
2021/11/29 09:54:03;;;;;;;42.47;25.17;;;3.20;99.90;;;3.19;78.46;99677.94;5053432;28;20258;-74
2021/11/29 09:56:33;;;;;;;43.88;26.17;;;3.20;99.90;;;2.97;78.90;99674.31;5053597;28;20188;-74
2021/11/29 09:59:03;;;;;;;43.75;23.08;;;3.10;99.90;;;3.08;77.82;99674.88;5053197;28;20366;-73
2021/11/29 10:01:33;;;;;;;43.22;24.65;;;3.10;99.90;;;3.02;78.47;99674.59;5053179;28;20215;-74
2021/11/29 10:04:06;;;;;;;38.70;23.40;;;3.10;99.90;;;3.05;78.42;99673.41;5053961;28;20204;-74
2021/11/29 10:06:35;;;;;;;39.67;24.40;;;3.10;99.90;;;2.97;78.48;99674.31;5054785;28;20630;-74
2021/11/29 10:09:30;;;;;;;41.80;24.88;;;3.10;99.90;;;3.18;78.29;99680.78;5053443;28;20169;-74
2021/11/29 10:12:27;;;;;;;41.42;23.73;;;3.10;99.90;;;3.12;78.29;99684.19;5053368;28;20196;-73
2021/11/29 10:15:18;;;;;;;42.28;24.15;;;3.20;99.90;;;3.30;77.73;99685.47;5052971;28;20208;-74
2021/11/29 10:17:49;;;;;;;43.78;24.10;;;3.30;99.90;;;3.36;77.71;99686.59;5051937;28;20239;-72
2021/11/29 10:20:55;;;;;;;42.17;25.20;;;3.30;99.90;;;3.28;77.54;99679.50;5053033;28;20185;-73
2021/11/29 10:23:32;;;;;;;37.03;22.42;;;3.30;99.90;;;3.37;77.22;99682.91;5053486;28;20201;-74
2021/11/29 10:26:05;;;;;;;36.05;21.20;;;3.30;99.90;;;3.47;77.26;99691.47;5053251;28;20368;-73
2021/11/29 10:28:40;;;;;;;35.90;21.15;;;3.40;99.90;;;3.36;77.22;99681.25;5053561;28;20177;-74
2021/11/29 10:31:28;;;;;;;36.05;22.70;;;3.40;99.90;;;3.84;76.77;99688.66;5053577;28;20234;-72
2021/11/29 10:34:05;;;;;;;33.33;23.02;;;3.60;99.90;;;3.90;76.51;99681.72;5057792;28;20203;-75
2021/11/29 10:36:39;;;;;;;35.17;19.83;;;3.80;99.90;;;3.84;75.44;99687.81;5056478;28;20207;-74